sensor_id;sensor_type;location;lat;lon;timestamp;temperature;humidity
59041;DHT22;44825;53.200;6.448;2022-09-09T00:02:00;16.40;99.90
59041;DHT22;44825;53.200;6.448;2022-09-09T00:04:30;16.40;99.90
59041;DHT22;44825;53.200;6.448;2022-09-09T00:07:03;16.40;99.90
59041;DHT22;44825;53.200;6.448;2022-09-09T00:09:38;16.30;99.90
59041;DHT22;44825;53.200;6.448;2022-09-09T00:12:11;16.30;99.90
59041;DHT22;44825;53.200;6.448;2022-09-09T00:14:45;16.30;99.90
59041;DHT22;44825;53.200;6.448;2022-09-09T00:17:19;16.30;99.90
59041;DHT22;44825;53.200;6.448;2022-09-09T00:19:56;16.40;99.90
59041;DHT22;44825;53.200;6.448;2022-09-09T00:22:26;16.40;99.90
59041;DHT22;44825;53.200;6.448;2022-09-09T00:25:02;16.40;99.90
59041;DHT22;44825;53.200;6.448;2022-09-09T00:27:41;16.40;99.90
59041;DHT22;44825;53.200;6.448;2022-09-09T00:30:16;16.40;99.90
59041;DHT22;44825;53.200;6.448;2022-09-09T00:32:46;16.40;99.90
59041;DHT22;44825;53.200;6.448;2022-09-09T00:35:21;16.30;99.90
59041;DHT22;44825;53.200;6.448;2022-09-09T00:37:51;16.30;99.90
59041;DHT22;44825;53.200;6.448;2022-09-09T00:40:29;16.30;99.90
59041;DHT22;44825;53.200;6.448;2022-09-09T00:43:12;16.30;99.90
59041;DHT22;44825;53.200;6.448;2022-09-09T00:48:49;16.20;99.90
59041;DHT22;44825;53.200;6.448;2022-09-09T00:51:24;16.20;99.90
59041;DHT22;44825;53.200;6.448;2022-09-09T00:54:12;16.20;99.90
59041;DHT22;44825;53.200;6.448;2022-09-09T00:56:54;16.20;99.90
59041;DHT22;44825;53.200;6.448;2022-09-09T00:59:28;16.10;99.90
59041;DHT22;44825;53.200;6.448;2022-09-09T01:02:04;16.10;99.90
59041;DHT22;44825;53.200;6.448;2022-09-09T01:04:35;16.10;99.90
59041;DHT22;44825;53.200;6.448;2022-09-09T01:07:08;16.10;99.90
59041;DHT22;44825;53.200;6.448;2022-09-09T01:09:44;16.10;99.90
59041;DHT22;44825;53.200;6.448;2022-09-09T01:12:16;16.10;99.90
59041;DHT22;44825;53.200;6.448;2022-09-09T01:14:47;16.00;99.90
59041;DHT22;44825;53.200;6.448;2022-09-09T01:17:17;16.00;99.90
59041;DHT22;44825;53.200;6.448;2022-09-09T01:19:58;16.00;99.90
59041;DHT22;44825;53.200;6.448;2022-09-09T01:22:34;16.00;99.90
59041;DHT22;44825;53.200;6.448;2022-09-09T01:25:20;16.00;99.90
59041;DHT22;44825;53.200;6.448;2022-09-09T01:27:55;16.00;99.90
59041;DHT22;44825;53.200;6.448;2022-09-09T01:30:23;16.00;99.90
59041;DHT22;44825;53.200;6.448;2022-09-09T01:32:54;16.00;99.90
59041;DHT22;44825;53.200;6.448;2022-09-09T01:35:33;15.90;99.90
59041;DHT22;44825;53.200;6.448;2022-09-09T01:38:02;15.90;99.90
59041;DHT22;44825;53.200;6.448;2022-09-09T01:40:29;15.80;99.90
59041;DHT22;44825;53.200;6.448;2022-09-09T01:42:58;15.80;99.90
59041;DHT22;44825;53.200;6.448;2022-09-09T01:45:25;15.80;99.90
59041;DHT22;44825;53.200;6.448;2022-09-09T01:47:53;15.80;99.90
59041;DHT22;44825;53.200;6.448;2022-09-09T01:50:20;15.80;99.90
59041;DHT22;44825;53.200;6.448;2022-09-09T01:52:52;15.70;99.90
59041;DHT22;44825;53.200;6.448;2022-09-09T01:55:27;15.80;99.90
59041;DHT22;44825;53.200;6.448;2022-09-09T01:58:07;15.70;99.90
59041;DHT22;44825;53.200;6.448;2022-09-09T02:00:38;15.80;99.90
59041;DHT22;44825;53.200;6.448;2022-09-09T02:03:13;15.70;99.90
59041;DHT22;44825;53.200;6.448;2022-09-09T02:05:52;15.80;99.90
59041;DHT22;44825;53.200;6.448;2022-09-09T02:08:26;15.70;99.90
59041;DHT22;44825;53.200;6.448;2022-09-09T02:10:58;15.70;99.90
59041;DHT22;44825;53.200;6.448;2022-09-09T02:13:32;15.80;99.90
59041;DHT22;44825;53.200;6.448;2022-09-09T02:16:05;15.80;99.90
59041;DHT22;44825;53.200;6.448;2022-09-09T02:18:36;15.80;99.90
59041;DHT22;44825;53.200;6.448;2022-09-09T02:21:07;15.80;99.90
59041;DHT22;44825;53.200;6.448;2022-09-09T02:23:36;15.80;99.90
59041;DHT22;44825;53.200;6.448;2022-09-09T02:26:06;15.80;99.90
59041;DHT22;44825;53.200;6.448;2022-09-09T02:28:37;15.80;99.90
59041;DHT22;44825;53.200;6.448;2022-09-09T02:31:06;15.80;99.90
59041;DHT22;44825;53.200;6.448;2022-09-09T02:33:37;15.80;99.90
59041;DHT22;44825;53.200;6.448;2022-09-09T02:36:07;15.80;99.90
59041;DHT22;44825;53.200;6.448;2022-09-09T02:38:38;15.80;99.90
59041;DHT22;44825;53.200;6.448;2022-09-09T02:41:08;15.80;99.90
59041;DHT22;44825;53.200;6.448;2022-09-09T02:43:37;15.80;99.90
59041;DHT22;44825;53.200;6.448;2022-09-09T02:46:11;15.90;99.90
59041;DHT22;44825;53.200;6.448;2022-09-09T02:48:49;15.90;99.90
59041;DHT22;44825;53.200;6.448;2022-09-09T02:51:25;15.90;99.90
59041;DHT22;44825;53.200;6.448;2022-09-09T02:54:03;15.90;99.90
59041;DHT22;44825;53.200;6.448;2022-09-09T02:56:33;15.90;99.90
59041;DHT22;44825;53.200;6.448;2022-09-09T02:59:05;15.90;99.90
59041;DHT22;44825;53.200;6.448;2022-09-09T03:01:32;15.90;99.90
59041;DHT22;44825;53.200;6.448;2022-09-09T03:04:02;16.00;99.90
59041;DHT22;44825;53.200;6.448;2022-09-09T03:06:31;16.00;99.90
59041;DHT22;44825;53.200;6.448;2022-09-09T03:08:58;15.90;99.90
59041;DHT22;44825;53.200;6.448;2022-09-09T03:11:28;15.90;99.90
59041;DHT22;44825;53.200;6.448;2022-09-09T03:13:55;16.00;99.90
59041;DHT22;44825;53.200;6.448;2022-09-09T03:16:24;15.90;99.90
59041;DHT22;44825;53.200;6.448;2022-09-09T03:18:51;15.90;99.90
59041;DHT22;44825;53.200;6.448;2022-09-09T03:21:18;15.90;99.90
59041;DHT22;44825;53.200;6.448;2022-09-09T03:23:46;15.90;99.90
59041;DHT22;44825;53.200;6.448;2022-09-09T03:26:14;16.00;99.90
59041;DHT22;44825;53.200;6.448;2022-09-09T03:28:41;16.00;99.90
59041;DHT22;44825;53.200;6.448;2022-09-09T03:31:09;15.90;99.90
59041;DHT22;44825;53.200;6.448;2022-09-09T03:33:38;16.00;99.90
59041;DHT22;44825;53.200;6.448;2022-09-09T03:36:07;16.00;99.90
59041;DHT22;44825;53.200;6.448;2022-09-09T03:38:35;16.00;99.90
59041;DHT22;44825;53.200;6.448;2022-09-09T03:41:03;16.00;99.90
59041;DHT22;44825;53.200;6.448;2022-09-09T03:43:34;16.00;99.90
59041;DHT22;44825;53.200;6.448;2022-09-09T03:46:02;16.00;99.90
59041;DHT22;44825;53.200;6.448;2022-09-09T03:48:29;16.00;99.90
59041;DHT22;44825;53.200;6.448;2022-09-09T03:50:58;16.00;99.90
59041;DHT22;44825;53.200;6.448;2022-09-09T03:53:28;16.00;99.90
59041;DHT22;44825;53.200;6.448;2022-09-09T03:55:57;16.00;99.90
59041;DHT22;44825;53.200;6.448;2022-09-09T03:58:26;16.00;99.90
59041;DHT22;44825;53.200;6.448;2022-09-09T04:00:55;16.00;99.90
59041;DHT22;44825;53.200;6.448;2022-09-09T04:03:24;16.00;99.90
59041;DHT22;44825;53.200;6.448;2022-09-09T04:05:52;16.00;99.90
59041;DHT22;44825;53.200;6.448;2022-09-09T04:08:21;16.00;99.90
59041;DHT22;44825;53.200;6.448;2022-09-09T04:10:50;16.00;99.90
59041;DHT22;44825;53.200;6.448;2022-09-09T04:13:18;16.10;99.90
59041;DHT22;44825;53.200;6.448;2022-09-09T04:15:50;16.10;99.90
59041;DHT22;44825;53.200;6.448;2022-09-09T04:18:18;16.10;99.90
59041;DHT22;44825;53.200;6.448;2022-09-09T04:20:46;16.10;99.90
59041;DHT22;44825;53.200;6.448;2022-09-09T04:23:14;16.10;99.90
59041;DHT22;44825;53.200;6.448;2022-09-09T04:25:47;16.10;99.90
59041;DHT22;44825;53.200;6.448;2022-09-09T04:28:14;16.10;99.90
59041;DHT22;44825;53.200;6.448;2022-09-09T04:30:43;16.10;99.90
59041;DHT22;44825;53.200;6.448;2022-09-09T04:33:11;16.10;99.90
59041;DHT22;44825;53.200;6.448;2022-09-09T04:35:38;16.10;99.90
59041;DHT22;44825;53.200;6.448;2022-09-09T04:38:06;16.10;99.90
59041;DHT22;44825;53.200;6.448;2022-09-09T04:40:35;16.10;99.90
59041;DHT22;44825;53.200;6.448;2022-09-09T04:43:04;16.10;99.90
59041;DHT22;44825;53.200;6.448;2022-09-09T04:45:31;16.10;99.90
59041;DHT22;44825;53.200;6.448;2022-09-09T04:47:59;16.10;99.90
59041;DHT22;44825;53.200;6.448;2022-09-09T04:50:26;16.10;99.90
59041;DHT22;44825;53.200;6.448;2022-09-09T04:52:54;16.10;99.90
59041;DHT22;44825;53.200;6.448;2022-09-09T04:55:21;16.10;99.90
59041;DHT22;44825;53.200;6.448;2022-09-09T04:57:49;16.10;99.90
59041;DHT22;44825;53.200;6.448;2022-09-09T05:00:17;16.10;99.90
59041;DHT22;44825;53.200;6.448;2022-09-09T05:02:45;16.10;99.90
59041;DHT22;44825;53.200;6.448;2022-09-09T05:05:13;16.10;99.90
59041;DHT22;44825;53.200;6.448;2022-09-09T05:07:41;16.10;99.90
59041;DHT22;44825;53.200;6.448;2022-09-09T05:10:09;16.10;99.90
59041;DHT22;44825;53.200;6.448;2022-09-09T05:12:36;16.10;99.90
59041;DHT22;44825;53.200;6.448;2022-09-09T05:15:04;16.10;99.90
59041;DHT22;44825;53.200;6.448;2022-09-09T05:17:34;16.10;99.90
59041;DHT22;44825;53.200;6.448;2022-09-09T05:20:02;16.10;99.90
59041;DHT22;44825;53.200;6.448;2022-09-09T05:22:30;16.10;99.90
59041;DHT22;44825;53.200;6.448;2022-09-09T05:24:57;16.10;99.90
59041;DHT22;44825;53.200;6.448;2022-09-09T05:27:24;16.10;99.90
59041;DHT22;44825;53.200;6.448;2022-09-09T05:29:51;16.10;99.90
59041;DHT22;44825;53.200;6.448;2022-09-09T05:32:19;16.10;99.90
59041;DHT22;44825;53.200;6.448;2022-09-09T05:34:47;16.10;99.90
59041;DHT22;44825;53.200;6.448;2022-09-09T05:37:15;16.00;99.90
59041;DHT22;44825;53.200;6.448;2022-09-09T05:39:42;16.00;99.90
59041;DHT22;44825;53.200;6.448;2022-09-09T05:42:09;16.00;99.90
59041;DHT22;44825;53.200;6.448;2022-09-09T05:44:37;16.10;99.90
59041;DHT22;44825;53.200;6.448;2022-09-09T05:47:04;16.00;99.90
59041;DHT22;44825;53.200;6.448;2022-09-09T05:49:32;16.00;99.90
59041;DHT22;44825;53.200;6.448;2022-09-09T05:52:01;16.00;99.90
59041;DHT22;44825;53.200;6.448;2022-09-09T05:54:30;16.00;99.90
59041;DHT22;44825;53.200;6.448;2022-09-09T05:56:58;16.10;99.90
59041;DHT22;44825;53.200;6.448;2022-09-09T05:59:25;16.10;99.90
59041;DHT22;44825;53.200;6.448;2022-09-09T06:01:53;16.10;99.90
59041;DHT22;44825;53.200;6.448;2022-09-09T06:04:21;16.10;99.90
59041;DHT22;44825;53.200;6.448;2022-09-09T06:06:50;16.10;99.90
59041;DHT22;44825;53.200;6.448;2022-09-09T06:09:19;16.20;99.90
59041;DHT22;44825;53.200;6.448;2022-09-09T06:11:46;16.10;99.90
59041;DHT22;44825;53.200;6.448;2022-09-09T06:14:13;16.10;99.90
59041;DHT22;44825;53.200;6.448;2022-09-09T06:16:41;16.10;99.90
59041;DHT22;44825;53.200;6.448;2022-09-09T06:19:10;16.10;99.90
59041;DHT22;44825;53.200;6.448;2022-09-09T06:21:38;16.20;99.90
59041;DHT22;44825;53.200;6.448;2022-09-09T06:24:06;16.20;99.90
59041;DHT22;44825;53.200;6.448;2022-09-09T06:26:37;16.10;99.90
59041;DHT22;44825;53.200;6.448;2022-09-09T06:29:07;16.20;99.90
59041;DHT22;44825;53.200;6.448;2022-09-09T06:31:35;16.20;99.90
59041;DHT22;44825;53.200;6.448;2022-09-09T06:34:06;16.20;99.90
59041;DHT22;44825;53.200;6.448;2022-09-09T06:36:35;16.20;99.90
59041;DHT22;44825;53.200;6.448;2022-09-09T06:39:03;16.20;99.90
59041;DHT22;44825;53.200;6.448;2022-09-09T06:41:31;16.30;99.90
59041;DHT22;44825;53.200;6.448;2022-09-09T06:44:00;16.30;99.90
59041;DHT22;44825;53.200;6.448;2022-09-09T06:46:30;16.30;99.90
59041;DHT22;44825;53.200;6.448;2022-09-09T06:48:59;16.30;99.90
59041;DHT22;44825;53.200;6.448;2022-09-09T06:51:28;16.30;99.90
59041;DHT22;44825;53.200;6.448;2022-09-09T06:53:57;16.30;99.90
59041;DHT22;44825;53.200;6.448;2022-09-09T06:56:26;16.30;99.90
59041;DHT22;44825;53.200;6.448;2022-09-09T06:58:55;16.30;99.90
59041;DHT22;44825;53.200;6.448;2022-09-09T07:01:27;16.30;99.90
59041;DHT22;44825;53.200;6.448;2022-09-09T07:03:57;16.30;99.90
59041;DHT22;44825;53.200;6.448;2022-09-09T07:06:27;16.40;99.90
59041;DHT22;44825;53.200;6.448;2022-09-09T07:08:56;16.40;99.90
59041;DHT22;44825;53.200;6.448;2022-09-09T07:11:24;16.40;99.90
59041;DHT22;44825;53.200;6.448;2022-09-09T07:13:53;16.40;99.90
59041;DHT22;44825;53.200;6.448;2022-09-09T07:16:21;16.40;99.90
59041;DHT22;44825;53.200;6.448;2022-09-09T07:18:52;16.40;99.90
59041;DHT22;44825;53.200;6.448;2022-09-09T07:21:24;16.40;99.90
59041;DHT22;44825;53.200;6.448;2022-09-09T07:23:53;16.40;99.90
59041;DHT22;44825;53.200;6.448;2022-09-09T07:26:22;16.40;99.90
59041;DHT22;44825;53.200;6.448;2022-09-09T07:28:50;16.40;99.90
59041;DHT22;44825;53.200;6.448;2022-09-09T07:31:20;16.40;99.90
59041;DHT22;44825;53.200;6.448;2022-09-09T07:33:48;16.40;99.90
59041;DHT22;44825;53.200;6.448;2022-09-09T07:36:18;16.40;99.90
59041;DHT22;44825;53.200;6.448;2022-09-09T07:38:49;16.40;99.90
59041;DHT22;44825;53.200;6.448;2022-09-09T07:41:20;16.40;99.90
59041;DHT22;44825;53.200;6.448;2022-09-09T07:43:48;16.50;99.90
59041;DHT22;44825;53.200;6.448;2022-09-09T07:46:17;16.40;99.90
59041;DHT22;44825;53.200;6.448;2022-09-09T07:48:46;16.50;99.90
59041;DHT22;44825;53.200;6.448;2022-09-09T07:51:20;16.60;99.90
59041;DHT22;44825;53.200;6.448;2022-09-09T07:53:51;16.60;99.90
59041;DHT22;44825;53.200;6.448;2022-09-09T07:56:19;16.60;99.90
59041;DHT22;44825;53.200;6.448;2022-09-09T07:58:48;16.60;99.90
59041;DHT22;44825;53.200;6.448;2022-09-09T08:01:17;16.70;99.90
59041;DHT22;44825;53.200;6.448;2022-09-09T08:03:46;16.70;99.90
59041;DHT22;44825;53.200;6.448;2022-09-09T08:06:13;16.70;99.90
59041;DHT22;44825;53.200;6.448;2022-09-09T08:08:42;16.80;99.90
59041;DHT22;44825;53.200;6.448;2022-09-09T08:11:12;16.80;99.90
59041;DHT22;44825;53.200;6.448;2022-09-09T08:13:41;16.90;99.90
59041;DHT22;44825;53.200;6.448;2022-09-09T08:16:11;16.90;99.90
59041;DHT22;44825;53.200;6.448;2022-09-09T08:18:39;16.90;99.90
59041;DHT22;44825;53.200;6.448;2022-09-09T08:21:08;16.90;99.90
59041;DHT22;44825;53.200;6.448;2022-09-09T08:23:38;17.00;99.90
59041;DHT22;44825;53.200;6.448;2022-09-09T08:26:10;17.00;99.90
59041;DHT22;44825;53.200;6.448;2022-09-09T08:28:37;17.00;99.90
59041;DHT22;44825;53.200;6.448;2022-09-09T08:31:10;17.00;99.90
59041;DHT22;44825;53.200;6.448;2022-09-09T08:33:38;17.00;99.90
59041;DHT22;44825;53.200;6.448;2022-09-09T08:36:07;17.10;99.90
59041;DHT22;44825;53.200;6.448;2022-09-09T08:38:35;17.10;99.90
59041;DHT22;44825;53.200;6.448;2022-09-09T08:44:03;17.10;99.90
59041;DHT22;44825;53.200;6.448;2022-09-09T08:46:33;17.20;99.90
59041;DHT22;44825;53.200;6.448;2022-09-09T08:49:06;17.20;99.90
59041;DHT22;44825;53.200;6.448;2022-09-09T08:51:40;17.20;99.90
59041;DHT22;44825;53.200;6.448;2022-09-09T08:54:09;17.20;99.90
59041;DHT22;44825;53.200;6.448;2022-09-09T08:56:38;17.20;99.90
59041;DHT22;44825;53.200;6.448;2022-09-09T08:59:05;17.30;99.90
59041;DHT22;44825;53.200;6.448;2022-09-09T09:01:41;17.40;99.90
59041;DHT22;44825;53.200;6.448;2022-09-09T09:04:22;17.50;99.90
59041;DHT22;44825;53.200;6.448;2022-09-09T09:07:01;17.50;99.90
59041;DHT22;44825;53.200;6.448;2022-09-09T09:09:38;17.60;99.90
59041;DHT22;44825;53.200;6.448;2022-09-09T09:12:16;17.60;99.90
59041;DHT22;44825;53.200;6.448;2022-09-09T09:14:47;17.60;99.90
59041;DHT22;44825;53.200;6.448;2022-09-09T09:17:17;17.70;99.90
59041;DHT22;44825;53.200;6.448;2022-09-09T09:19:47;17.80;99.90
59041;DHT22;44825;53.200;6.448;2022-09-09T09:22:18;17.90;99.90
59041;DHT22;44825;53.200;6.448;2022-09-09T09:24:52;17.90;99.90
59041;DHT22;44825;53.200;6.448;2022-09-09T09:27:31;18.00;99.90
59041;DHT22;44825;53.200;6.448;2022-09-09T09:30:01;18.10;99.90
59041;DHT22;44825;53.200;6.448;2022-09-09T09:32:33;18.20;99.90
59041;DHT22;44825;53.200;6.448;2022-09-09T09:35:06;18.30;99.90
59041;DHT22;44825;53.200;6.448;2022-09-09T09:37:36;18.30;99.90
59041;DHT22;44825;53.200;6.448;2022-09-09T09:40:14;18.40;99.90
59041;DHT22;44825;53.200;6.448;2022-09-09T09:42:51;18.40;99.90
59041;DHT22;44825;53.200;6.448;2022-09-09T09:45:27;18.50;99.90
59041;DHT22;44825;53.200;6.448;2022-09-09T09:47:59;18.60;99.90
59041;DHT22;44825;53.200;6.448;2022-09-09T09:50:28;18.70;99.90
59041;DHT22;44825;53.200;6.448;2022-09-09T09:52:57;18.70;99.90
59041;DHT22;44825;53.200;6.448;2022-09-09T09:55:25;18.70;99.90
59041;DHT22;44825;53.200;6.448;2022-09-09T09:58:01;18.70;99.90
59041;DHT22;44825;53.200;6.448;2022-09-09T10:00:29;18.70;99.90
59041;DHT22;44825;53.200;6.448;2022-09-09T10:02:57;18.60;99.90
59041;DHT22;44825;53.200;6.448;2022-09-09T10:05:27;18.50;99.90
59041;DHT22;44825;53.200;6.448;2022-09-09T10:08:03;18.50;99.90
59041;DHT22;44825;53.200;6.448;2022-09-09T10:10:40;18.40;99.90
59041;DHT22;44825;53.200;6.448;2022-09-09T10:13:16;18.40;99.90
59041;DHT22;44825;53.200;6.448;2022-09-09T10:15:51;18.40;99.90
59041;DHT22;44825;53.200;6.448;2022-09-09T10:18:31;18.40;99.90
59041;DHT22;44825;53.200;6.448;2022-09-09T10:21:08;18.40;99.90
59041;DHT22;44825;53.200;6.448;2022-09-09T10:23:56;18.30;99.90
59041;DHT22;44825;53.200;6.448;2022-09-09T10:26:38;18.30;99.90
59041;DHT22;44825;53.200;6.448;2022-09-09T10:29:30;18.30;99.90
59041;DHT22;44825;53.200;6.448;2022-09-09T10:32:10;18.30;99.90
59041;DHT22;44825;53.200;6.448;2022-09-09T10:34:53;18.30;99.90
59041;DHT22;44825;53.200;6.448;2022-09-09T10:37:31;18.30;99.90
59041;DHT22;44825;53.200;6.448;2022-09-09T10:40:16;18.40;99.90
59041;DHT22;44825;53.200;6.448;2022-09-09T10:42:47;18.50;99.90
59041;DHT22;44825;53.200;6.448;2022-09-09T10:45:18;18.60;99.90
59041;DHT22;44825;53.200;6.448;2022-09-09T10:48:10;18.70;99.90
59041;DHT22;44825;53.200;6.448;2022-09-09T10:50:51;18.90;99.90
59041;DHT22;44825;53.200;6.448;2022-09-09T10:53:26;19.00;99.90
59041;DHT22;44825;53.200;6.448;2022-09-09T10:56:01;19.00;99.90
59041;DHT22;44825;53.200;6.448;2022-09-09T10:58:35;19.10;99.90
59041;DHT22;44825;53.200;6.448;2022-09-09T11:01:13;19.10;99.90
59041;DHT22;44825;53.200;6.448;2022-09-09T11:03:43;19.10;99.90
59041;DHT22;44825;53.200;6.448;2022-09-09T11:06:16;19.10;99.90
59041;DHT22;44825;53.200;6.448;2022-09-09T11:08:45;19.00;99.90
59041;DHT22;44825;53.200;6.448;2022-09-09T11:11:17;19.00;99.90
59041;DHT22;44825;53.200;6.448;2022-09-09T11:13:51;19.00;99.90
59041;DHT22;44825;53.200;6.448;2022-09-09T11:16:26;19.00;99.90
59041;DHT22;44825;53.200;6.448;2022-09-09T11:18:59;19.10;99.90
59041;DHT22;44825;53.200;6.448;2022-09-09T11:21:31;19.30;99.90
59041;DHT22;44825;53.200;6.448;2022-09-09T11:24:04;19.30;99.90
59041;DHT22;44825;53.200;6.448;2022-09-09T11:26:38;19.30;99.90
59041;DHT22;44825;53.200;6.448;2022-09-09T11:29:26;19.30;99.90
59041;DHT22;44825;53.200;6.448;2022-09-09T11:32:10;19.30;99.90
59041;DHT22;44825;53.200;6.448;2022-09-09T11:34:51;19.40;99.90
59041;DHT22;44825;53.200;6.448;2022-09-09T11:37:32;19.40;99.90
59041;DHT22;44825;53.200;6.448;2022-09-09T11:40:16;19.50;99.90
59041;DHT22;44825;53.200;6.448;2022-09-09T11:42:46;19.50;99.90
59041;DHT22;44825;53.200;6.448;2022-09-09T11:45:22;19.50;99.90
59041;DHT22;44825;53.200;6.448;2022-09-09T11:47:54;19.40;99.90
59041;DHT22;44825;53.200;6.448;2022-09-09T11:50:31;19.40;99.90
59041;DHT22;44825;53.200;6.448;2022-09-09T11:53:21;19.30;99.90
59041;DHT22;44825;53.200;6.448;2022-09-09T11:56:04;19.30;99.90
59041;DHT22;44825;53.200;6.448;2022-09-09T11:58:40;19.30;99.90
59041;DHT22;44825;53.200;6.448;2022-09-09T12:01:15;19.40;99.90
59041;DHT22;44825;53.200;6.448;2022-09-09T12:03:46;19.50;99.90
59041;DHT22;44825;53.200;6.448;2022-09-09T12:06:18;19.70;99.90
59041;DHT22;44825;53.200;6.448;2022-09-09T12:08:51;19.70;99.90
59041;DHT22;44825;53.200;6.448;2022-09-09T12:11:25;19.70;99.90
59041;DHT22;44825;53.200;6.448;2022-09-09T12:13:54;19.70;99.90
59041;DHT22;44825;53.200;6.448;2022-09-09T12:16:33;19.70;99.90
59041;DHT22;44825;53.200;6.448;2022-09-09T12:19:07;19.60;99.90
59041;DHT22;44825;53.200;6.448;2022-09-09T12:21:45;19.60;99.90
59041;DHT22;44825;53.200;6.448;2022-09-09T12:24:22;19.60;99.90
59041;DHT22;44825;53.200;6.448;2022-09-09T12:26:56;19.60;99.90
59041;DHT22;44825;53.200;6.448;2022-09-09T12:29:31;19.60;99.90
59041;DHT22;44825;53.200;6.448;2022-09-09T12:32:06;19.60;99.90
59041;DHT22;44825;53.200;6.448;2022-09-09T12:34:38;19.60;99.90
59041;DHT22;44825;53.200;6.448;2022-09-09T12:37:16;19.50;99.90
59041;DHT22;44825;53.200;6.448;2022-09-09T12:39:49;19.50;99.90
59041;DHT22;44825;53.200;6.448;2022-09-09T12:42:19;19.50;99.90
59041;DHT22;44825;53.200;6.448;2022-09-09T12:44:54;19.50;99.90
59041;DHT22;44825;53.200;6.448;2022-09-09T12:47:30;19.60;99.90
59041;DHT22;44825;53.200;6.448;2022-09-09T12:50:00;19.60;99.90
59041;DHT22;44825;53.200;6.448;2022-09-09T12:52:30;19.60;99.90
59041;DHT22;44825;53.200;6.448;2022-09-09T12:55:00;19.60;99.90
59041;DHT22;44825;53.200;6.448;2022-09-09T12:57:33;19.60;99.90
59041;DHT22;44825;53.200;6.448;2022-09-09T13:00:12;19.60;99.90
59041;DHT22;44825;53.200;6.448;2022-09-09T13:02:49;19.70;99.90
59041;DHT22;44825;53.200;6.448;2022-09-09T13:05:21;19.70;99.90
59041;DHT22;44825;53.200;6.448;2022-09-09T13:07:49;19.70;99.90
59041;DHT22;44825;53.200;6.448;2022-09-09T13:10:23;19.80;99.90
59041;DHT22;44825;53.200;6.448;2022-09-09T13:12:52;19.80;99.90
59041;DHT22;44825;53.200;6.448;2022-09-09T13:15:23;19.80;99.90
59041;DHT22;44825;53.200;6.448;2022-09-09T13:17:55;19.80;99.90
59041;DHT22;44825;53.200;6.448;2022-09-09T13:20:25;19.80;99.90
59041;DHT22;44825;53.200;6.448;2022-09-09T13:22:53;19.80;99.90
59041;DHT22;44825;53.200;6.448;2022-09-09T13:25:24;19.90;99.90
59041;DHT22;44825;53.200;6.448;2022-09-09T13:27:59;19.90;99.90
59041;DHT22;44825;53.200;6.448;2022-09-09T13:30:30;19.80;99.90
59041;DHT22;44825;53.200;6.448;2022-09-09T13:35:51;19.80;99.90
59041;DHT22;44825;53.200;6.448;2022-09-09T13:38:19;19.70;99.90
59041;DHT22;44825;53.200;6.448;2022-09-09T13:40:57;19.60;99.90
59041;DHT22;44825;53.200;6.448;2022-09-09T13:43:28;19.60;99.90
59041;DHT22;44825;53.200;6.448;2022-09-09T13:45:58;19.60;99.90
59041;DHT22;44825;53.200;6.448;2022-09-09T13:48:27;19.60;99.90
59041;DHT22;44825;53.200;6.448;2022-09-09T13:51:02;19.60;99.90
59041;DHT22;44825;53.200;6.448;2022-09-09T13:53:31;19.50;99.90
59041;DHT22;44825;53.200;6.448;2022-09-09T13:55:59;19.50;99.90
59041;DHT22;44825;53.200;6.448;2022-09-09T13:58:27;19.50;99.90
59041;DHT22;44825;53.200;6.448;2022-09-09T14:00:55;19.50;99.90
59041;DHT22;44825;53.200;6.448;2022-09-09T14:03:23;19.50;99.90
59041;DHT22;44825;53.200;6.448;2022-09-09T14:05:50;19.60;99.90
59041;DHT22;44825;53.200;6.448;2022-09-09T14:08:24;19.60;99.90
59041;DHT22;44825;53.200;6.448;2022-09-09T14:10:53;19.70;99.90
59041;DHT22;44825;53.200;6.448;2022-09-09T14:13:25;19.70;99.90
59041;DHT22;44825;53.200;6.448;2022-09-09T14:15:52;19.70;99.90
59041;DHT22;44825;53.200;6.448;2022-09-09T14:18:20;19.60;99.90
59041;DHT22;44825;53.200;6.448;2022-09-09T14:20:48;19.60;99.90
59041;DHT22;44825;53.200;6.448;2022-09-09T14:23:16;19.50;99.90
59041;DHT22;44825;53.200;6.448;2022-09-09T14:25:46;19.50;99.90
59041;DHT22;44825;53.200;6.448;2022-09-09T14:28:13;19.40;99.90
59041;DHT22;44825;53.200;6.448;2022-09-09T14:30:42;19.40;99.90
59041;DHT22;44825;53.200;6.448;2022-09-09T14:33:11;19.30;99.90
59041;DHT22;44825;53.200;6.448;2022-09-09T14:35:39;19.30;99.90
59041;DHT22;44825;53.200;6.448;2022-09-09T14:38:07;19.30;99.90
59041;DHT22;44825;53.200;6.448;2022-09-09T14:40:35;19.30;99.90
59041;DHT22;44825;53.200;6.448;2022-09-09T14:43:05;19.20;99.90
59041;DHT22;44825;53.200;6.448;2022-09-09T14:45:32;19.20;99.90
59041;DHT22;44825;53.200;6.448;2022-09-09T14:48:00;19.10;99.90
59041;DHT22;44825;53.200;6.448;2022-09-09T14:50:27;19.10;99.90
59041;DHT22;44825;53.200;6.448;2022-09-09T14:52:54;19.00;99.90
59041;DHT22;44825;53.200;6.448;2022-09-09T14:55:21;19.00;99.90
59041;DHT22;44825;53.200;6.448;2022-09-09T14:57:49;19.00;99.90
59041;DHT22;44825;53.200;6.448;2022-09-09T15:00:18;19.00;99.90
59041;DHT22;44825;53.200;6.448;2022-09-09T15:02:45;19.00;99.90
59041;DHT22;44825;53.200;6.448;2022-09-09T15:05:12;19.00;99.90
59041;DHT22;44825;53.200;6.448;2022-09-09T15:07:41;19.00;99.90
59041;DHT22;44825;53.200;6.448;2022-09-09T15:10:08;19.10;99.90
59041;DHT22;44825;53.200;6.448;2022-09-09T15:12:37;19.10;99.90
59041;DHT22;44825;53.200;6.448;2022-09-09T15:15:05;19.20;99.90
59041;DHT22;44825;53.200;6.448;2022-09-09T15:17:34;19.20;99.90
59041;DHT22;44825;53.200;6.448;2022-09-09T15:20:02;19.30;99.90
59041;DHT22;44825;53.200;6.448;2022-09-09T15:22:31;19.30;99.90
59041;DHT22;44825;53.200;6.448;2022-09-09T15:24:59;19.30;99.90
59041;DHT22;44825;53.200;6.448;2022-09-09T15:27:27;19.30;99.90
59041;DHT22;44825;53.200;6.448;2022-09-09T15:29:57;19.30;99.90
59041;DHT22;44825;53.200;6.448;2022-09-09T15:32:25;19.30;99.90
59041;DHT22;44825;53.200;6.448;2022-09-09T15:34:53;19.30;99.90
59041;DHT22;44825;53.200;6.448;2022-09-09T15:37:21;19.30;99.90
59041;DHT22;44825;53.200;6.448;2022-09-09T15:39:48;19.30;99.90
59041;DHT22;44825;53.200;6.448;2022-09-09T15:42:15;19.30;99.90
59041;DHT22;44825;53.200;6.448;2022-09-09T15:44:43;19.30;99.90
59041;DHT22;44825;53.200;6.448;2022-09-09T15:47:11;19.20;99.90
59041;DHT22;44825;53.200;6.448;2022-09-09T15:49:41;19.20;99.90
59041;DHT22;44825;53.200;6.448;2022-09-09T15:52:10;19.20;99.90
59041;DHT22;44825;53.200;6.448;2022-09-09T15:54:37;19.10;99.90
59041;DHT22;44825;53.200;6.448;2022-09-09T15:57:07;19.10;99.90
59041;DHT22;44825;53.200;6.448;2022-09-09T15:59:38;19.10;99.90
59041;DHT22;44825;53.200;6.448;2022-09-09T16:02:06;19.00;99.90
59041;DHT22;44825;53.200;6.448;2022-09-09T16:04:33;19.00;99.90